sensor_id;sensor_type;location;lat;lon;timestamp;temperature;humidity
4207;DHT22;2117;47.972;7.830;2023-05-10T00:00:52;13.50;99.90
4207;DHT22;2117;47.972;7.830;2023-05-10T00:03:18;13.50;99.90
4207;DHT22;2117;47.972;7.830;2023-05-10T00:05:43;13.50;99.90
4207;DHT22;2117;47.972;7.830;2023-05-10T00:08:09;13.50;99.90
4207;DHT22;2117;47.972;7.830;2023-05-10T00:10:35;13.40;99.90
4207;DHT22;2117;47.972;7.830;2023-05-10T00:13:01;13.40;99.90
4207;DHT22;2117;47.972;7.830;2023-05-10T00:15:26;13.40;99.90
4207;DHT22;2117;47.972;7.830;2023-05-10T00:17:52;13.40;99.90
4207;DHT22;2117;47.972;7.830;2023-05-10T00:20:18;13.40;99.90
4207;DHT22;2117;47.972;7.830;2023-05-10T00:22:43;13.40;99.90
4207;DHT22;2117;47.972;7.830;2023-05-10T00:25:09;13.40;99.90
4207;DHT22;2117;47.972;7.830;2023-05-10T00:27:35;13.40;99.90
4207;DHT22;2117;47.972;7.830;2023-05-10T00:30:01;13.40;99.90
4207;DHT22;2117;47.972;7.830;2023-05-10T00:32:26;13.40;99.90
4207;DHT22;2117;47.972;7.830;2023-05-10T00:34:52;13.30;99.90
4207;DHT22;2117;47.972;7.830;2023-05-10T00:37:18;13.30;99.90
4207;DHT22;2117;47.972;7.830;2023-05-10T00:39:43;13.40;99.90
4207;DHT22;2117;47.972;7.830;2023-05-10T00:42:09;13.30;99.90
4207;DHT22;2117;47.972;7.830;2023-05-10T00:44:34;13.30;99.90
4207;DHT22;2117;47.972;7.830;2023-05-10T00:47:00;13.30;99.90
4207;DHT22;2117;47.972;7.830;2023-05-10T00:49:26;13.30;99.90
4207;DHT22;2117;47.972;7.830;2023-05-10T00:51:52;13.30;99.90
4207;DHT22;2117;47.972;7.830;2023-05-10T00:54:17;13.20;99.90
4207;DHT22;2117;47.972;7.830;2023-05-10T00:56:43;13.20;99.90
4207;DHT22;2117;47.972;7.830;2023-05-10T00:59:17;13.20;99.90
4207;DHT22;2117;47.972;7.830;2023-05-10T01:01:47;13.20;99.90
4207;DHT22;2117;47.972;7.830;2023-05-10T01:04:14;13.20;99.90
4207;DHT22;2117;47.972;7.830;2023-05-10T01:06:41;13.20;99.90
4207;DHT22;2117;47.972;7.830;2023-05-10T01:09:07;13.20;99.90
4207;DHT22;2117;47.972;7.830;2023-05-10T01:11:36;13.20;99.90
4207;DHT22;2117;47.972;7.830;2023-05-10T01:14:03;13.20;99.90
4207;DHT22;2117;47.972;7.830;2023-05-10T01:16:32;13.20;99.90
4207;DHT22;2117;47.972;7.830;2023-05-10T01:18:59;13.20;99.90
4207;DHT22;2117;47.972;7.830;2023-05-10T01:27:17;13.20;99.90
4207;DHT22;2117;47.972;7.830;2023-05-10T01:35:40;13.20;99.90
4207;DHT22;2117;47.972;7.830;2023-05-10T01:38:17;13.10;99.90
4207;DHT22;2117;47.972;7.830;2023-05-10T01:41:08;13.10;99.90
4207;DHT22;2117;47.972;7.830;2023-05-10T01:46:36;13.20;99.90
4207;DHT22;2117;47.972;7.830;2023-05-10T01:49:09;13.10;99.90
4207;DHT22;2117;47.972;7.830;2023-05-10T01:51:45;13.20;99.90
4207;DHT22;2117;47.972;7.830;2023-05-10T01:54:13;13.10;99.90
4207;DHT22;2117;47.972;7.830;2023-05-10T01:56:40;13.20;99.90
4207;DHT22;2117;47.972;7.830;2023-05-10T01:59:11;13.10;99.90
4207;DHT22;2117;47.972;7.830;2023-05-10T02:01:38;13.10;99.90
4207;DHT22;2117;47.972;7.830;2023-05-10T02:04:06;13.20;99.90
4207;DHT22;2117;47.972;7.830;2023-05-10T02:06:33;13.20;99.90
4207;DHT22;2117;47.972;7.830;2023-05-10T02:09:01;13.10;99.90
4207;DHT22;2117;47.972;7.830;2023-05-10T02:11:28;13.10;99.90
4207;DHT22;2117;47.972;7.830;2023-05-10T02:13:55;13.20;99.90
4207;DHT22;2117;47.972;7.830;2023-05-10T02:16:24;13.20;99.90
4207;DHT22;2117;47.972;7.830;2023-05-10T02:18:52;13.20;99.90
4207;DHT22;2117;47.972;7.830;2023-05-10T02:21:19;13.10;99.90
4207;DHT22;2117;47.972;7.830;2023-05-10T02:23:46;13.10;99.90
4207;DHT22;2117;47.972;7.830;2023-05-10T02:26:14;13.20;99.90
4207;DHT22;2117;47.972;7.830;2023-05-10T02:28:40;13.10;99.90
4207;DHT22;2117;47.972;7.830;2023-05-10T02:31:07;13.10;99.90
4207;DHT22;2117;47.972;7.830;2023-05-10T02:33:36;13.20;99.90
4207;DHT22;2117;47.972;7.830;2023-05-10T02:36:04;13.20;99.90
4207;DHT22;2117;47.972;7.830;2023-05-10T02:38:31;13.20;99.90
4207;DHT22;2117;47.972;7.830;2023-05-10T02:40:58;13.10;99.90
4207;DHT22;2117;47.972;7.830;2023-05-10T02:43:24;13.10;99.90
4207;DHT22;2117;47.972;7.830;2023-05-10T02:45:51;13.10;99.90
4207;DHT22;2117;47.972;7.830;2023-05-10T02:48:16;13.00;99.90
4207;DHT22;2117;47.972;7.830;2023-05-10T02:50:45;13.00;99.90
4207;DHT22;2117;47.972;7.830;2023-05-10T02:53:21;13.00;99.90
4207;DHT22;2117;47.972;7.830;2023-05-10T02:55:51;13.00;99.90
4207;DHT22;2117;47.972;7.830;2023-05-10T02:58:18;13.00;99.90
4207;DHT22;2117;47.972;7.830;2023-05-10T03:00:45;13.10;99.90
4207;DHT22;2117;47.972;7.830;2023-05-10T03:03:11;13.10;99.90
4207;DHT22;2117;47.972;7.830;2023-05-10T03:05:37;13.10;99.90
4207;DHT22;2117;47.972;7.830;2023-05-10T03:08:02;13.10;99.90
4207;DHT22;2117;47.972;7.830;2023-05-10T03:10:30;12.90;99.90
4207;DHT22;2117;47.972;7.830;2023-05-10T03:13:00;13.00;99.90
4207;DHT22;2117;47.972;7.830;2023-05-10T03:18:12;13.00;99.90
4207;DHT22;2117;47.972;7.830;2023-05-10T03:20:47;12.90;99.90
4207;DHT22;2117;47.972;7.830;2023-05-10T03:23:48;12.90;99.90
4207;DHT22;2117;47.972;7.830;2023-05-10T03:26:22;12.90;99.90
4207;DHT22;2117;47.972;7.830;2023-05-10T03:28:49;12.90;99.90
4207;DHT22;2117;47.972;7.830;2023-05-10T03:31:17;12.90;99.90
4207;DHT22;2117;47.972;7.830;2023-05-10T03:33:49;12.90;99.90
4207;DHT22;2117;47.972;7.830;2023-05-10T03:36:15;12.90;99.90
4207;DHT22;2117;47.972;7.830;2023-05-10T03:38:40;12.90;99.90
4207;DHT22;2117;47.972;7.830;2023-05-10T03:41:06;12.90;99.90
4207;DHT22;2117;47.972;7.830;2023-05-10T03:43:31;12.90;99.90
4207;DHT22;2117;47.972;7.830;2023-05-10T03:45:57;12.90;99.90
4207;DHT22;2117;47.972;7.830;2023-05-10T03:48:22;12.90;99.90
4207;DHT22;2117;47.972;7.830;2023-05-10T03:50:48;12.90;99.90
4207;DHT22;2117;47.972;7.830;2023-05-10T03:53:15;12.90;99.90
4207;DHT22;2117;47.972;7.830;2023-05-10T03:55:40;12.80;99.90
4207;DHT22;2117;47.972;7.830;2023-05-10T03:58:06;12.80;99.90
4207;DHT22;2117;47.972;7.830;2023-05-10T04:00:32;12.90;99.90
4207;DHT22;2117;47.972;7.830;2023-05-10T04:02:58;12.90;99.90
4207;DHT22;2117;47.972;7.830;2023-05-10T04:05:23;12.90;99.90
4207;DHT22;2117;47.972;7.830;2023-05-10T04:07:49;12.80;99.90
4207;DHT22;2117;47.972;7.830;2023-05-10T04:10:15;12.80;99.90
4207;DHT22;2117;47.972;7.830;2023-05-10T04:12:41;12.80;99.90
4207;DHT22;2117;47.972;7.830;2023-05-10T04:15:07;12.70;99.90
4207;DHT22;2117;47.972;7.830;2023-05-10T04:17:33;12.70;99.90
4207;DHT22;2117;47.972;7.830;2023-05-10T04:19:59;12.70;99.90
4207;DHT22;2117;47.972;7.830;2023-05-10T04:22:24;12.70;99.90
4207;DHT22;2117;47.972;7.830;2023-05-10T04:24:50;12.70;99.90
4207;DHT22;2117;47.972;7.830;2023-05-10T04:27:15;12.60;99.90
4207;DHT22;2117;47.972;7.830;2023-05-10T04:29:41;12.70;99.90
4207;DHT22;2117;47.972;7.830;2023-05-10T04:32:07;12.70;99.90
4207;DHT22;2117;47.972;7.830;2023-05-10T04:34:33;12.60;99.90
4207;DHT22;2117;47.972;7.830;2023-05-10T04:36:59;12.70;99.90
4207;DHT22;2117;47.972;7.830;2023-05-10T04:39:25;12.60;99.90
4207;DHT22;2117;47.972;7.830;2023-05-10T04:41:50;12.60;99.90
4207;DHT22;2117;47.972;7.830;2023-05-10T04:44:16;12.70;99.90
4207;DHT22;2117;47.972;7.830;2023-05-10T04:46:41;12.70;99.90
4207;DHT22;2117;47.972;7.830;2023-05-10T04:49:07;12.70;99.90
4207;DHT22;2117;47.972;7.830;2023-05-10T04:51:32;12.60;99.90
4207;DHT22;2117;47.972;7.830;2023-05-10T04:53:58;12.60;99.90
4207;DHT22;2117;47.972;7.830;2023-05-10T04:56:24;12.60;99.90
4207;DHT22;2117;47.972;7.830;2023-05-10T04:58:49;12.60;99.90
4207;DHT22;2117;47.972;7.830;2023-05-10T05:01:15;12.60;99.90
4207;DHT22;2117;47.972;7.830;2023-05-10T05:03:40;12.60;99.90
4207;DHT22;2117;47.972;7.830;2023-05-10T05:06:06;12.60;99.90
4207;DHT22;2117;47.972;7.830;2023-05-10T05:08:32;12.60;99.90
4207;DHT22;2117;47.972;7.830;2023-05-10T05:10:57;12.70;99.90
4207;DHT22;2117;47.972;7.830;2023-05-10T05:13:24;12.70;99.90
4207;DHT22;2117;47.972;7.830;2023-05-10T05:15:50;12.60;99.90
4207;DHT22;2117;47.972;7.830;2023-05-10T05:18:15;12.70;99.90
4207;DHT22;2117;47.972;7.830;2023-05-10T05:20:41;12.70;99.90
4207;DHT22;2117;47.972;7.830;2023-05-10T05:23:06;12.70;99.90
4207;DHT22;2117;47.972;7.830;2023-05-10T05:25:32;12.70;99.90
4207;DHT22;2117;47.972;7.830;2023-05-10T05:27:57;12.70;99.90
4207;DHT22;2117;47.972;7.830;2023-05-10T05:32:49;12.70;99.90
4207;DHT22;2117;47.972;7.830;2023-05-10T05:35:14;12.70;99.90
4207;DHT22;2117;47.972;7.830;2023-05-10T05:37:40;12.80;99.90
4207;DHT22;2117;47.972;7.830;2023-05-10T05:40:06;12.80;99.90
4207;DHT22;2117;47.972;7.830;2023-05-10T05:42:32;12.80;99.90
4207;DHT22;2117;47.972;7.830;2023-05-10T05:44:58;12.90;99.90
4207;DHT22;2117;47.972;7.830;2023-05-10T05:47:23;12.90;99.90
4207;DHT22;2117;47.972;7.830;2023-05-10T05:49:49;12.80;99.90
4207;DHT22;2117;47.972;7.830;2023-05-10T05:52:14;12.80;99.90
4207;DHT22;2117;47.972;7.830;2023-05-10T05:54:40;12.70;99.90
4207;DHT22;2117;47.972;7.830;2023-05-10T05:57:05;12.70;99.90
4207;DHT22;2117;47.972;7.830;2023-05-10T05:59:31;12.70;99.90
4207;DHT22;2117;47.972;7.830;2023-05-10T06:01:56;12.60;99.90
4207;DHT22;2117;47.972;7.830;2023-05-10T06:04:22;12.60;99.90
4207;DHT22;2117;47.972;7.830;2023-05-10T06:06:48;12.60;99.90
4207;DHT22;2117;47.972;7.830;2023-05-10T06:09:13;12.60;99.90
4207;DHT22;2117;47.972;7.830;2023-05-10T06:11:39;12.60;99.90
4207;DHT22;2117;47.972;7.830;2023-05-10T06:14:05;12.70;99.90
4207;DHT22;2117;47.972;7.830;2023-05-10T06:16:33;12.60;99.90
4207;DHT22;2117;47.972;7.830;2023-05-10T06:18:58;12.60;99.90
4207;DHT22;2117;47.972;7.830;2023-05-10T06:21:24;12.60;99.90
4207;DHT22;2117;47.972;7.830;2023-05-10T06:23:49;12.60;99.90
4207;DHT22;2117;47.972;7.830;2023-05-10T06:26:15;12.60;99.90
4207;DHT22;2117;47.972;7.830;2023-05-10T06:28:41;12.60;99.90
4207;DHT22;2117;47.972;7.830;2023-05-10T06:31:06;12.60;99.90
4207;DHT22;2117;47.972;7.830;2023-05-10T06:33:33;12.60;99.90
4207;DHT22;2117;47.972;7.830;2023-05-10T06:35:58;12.60;99.90
4207;DHT22;2117;47.972;7.830;2023-05-10T06:38:24;12.60;99.90
4207;DHT22;2117;47.972;7.830;2023-05-10T06:40:49;12.70;99.90
4207;DHT22;2117;47.972;7.830;2023-05-10T06:43:15;12.70;99.90
4207;DHT22;2117;47.972;7.830;2023-05-10T06:45:41;12.80;99.90
4207;DHT22;2117;47.972;7.830;2023-05-10T06:48:07;12.80;99.90
4207;DHT22;2117;47.972;7.830;2023-05-10T06:50:32;12.90;99.90
4207;DHT22;2117;47.972;7.830;2023-05-10T06:52:59;12.90;99.90
4207;DHT22;2117;47.972;7.830;2023-05-10T06:55:24;12.90;99.90
4207;DHT22;2117;47.972;7.830;2023-05-10T06:57:50;13.00;99.90
4207;DHT22;2117;47.972;7.830;2023-05-10T07:00:17;12.90;99.90
4207;DHT22;2117;47.972;7.830;2023-05-10T07:02:43;12.90;99.90
4207;DHT22;2117;47.972;7.830;2023-05-10T07:05:08;12.90;99.90
4207;DHT22;2117;47.972;7.830;2023-05-10T07:07:34;12.90;99.90
4207;DHT22;2117;47.972;7.830;2023-05-10T07:10:00;13.00;99.90
4207;DHT22;2117;47.972;7.830;2023-05-10T07:12:26;13.00;99.90
4207;DHT22;2117;47.972;7.830;2023-05-10T07:14:51;13.00;99.90
4207;DHT22;2117;47.972;7.830;2023-05-10T07:17:17;13.00;99.90
4207;DHT22;2117;47.972;7.830;2023-05-10T07:19:42;13.10;99.90
4207;DHT22;2117;47.972;7.830;2023-05-10T07:22:08;13.10;99.90
4207;DHT22;2117;47.972;7.830;2023-05-10T07:24:34;13.10;99.90
4207;DHT22;2117;47.972;7.830;2023-05-10T07:26:59;13.10;99.90
4207;DHT22;2117;47.972;7.830;2023-05-10T07:29:25;13.20;99.90
4207;DHT22;2117;47.972;7.830;2023-05-10T07:31:51;13.20;99.90
4207;DHT22;2117;47.972;7.830;2023-05-10T07:34:17;13.20;99.90
4207;DHT22;2117;47.972;7.830;2023-05-10T07:36:42;13.20;99.90
4207;DHT22;2117;47.972;7.830;2023-05-10T07:39:08;13.30;99.90
4207;DHT22;2117;47.972;7.830;2023-05-10T07:41:33;13.30;99.90
4207;DHT22;2117;47.972;7.830;2023-05-10T07:43:59;13.30;99.90
4207;DHT22;2117;47.972;7.830;2023-05-10T07:46:24;13.40;99.90
4207;DHT22;2117;47.972;7.830;2023-05-10T07:48:50;13.40;99.90
4207;DHT22;2117;47.972;7.830;2023-05-10T07:51:16;13.50;99.90
4207;DHT22;2117;47.972;7.830;2023-05-10T07:53:41;13.50;99.90
4207;DHT22;2117;47.972;7.830;2023-05-10T07:56:28;13.60;99.90
4207;DHT22;2117;47.972;7.830;2023-05-10T07:59:02;13.60;99.90
4207;DHT22;2117;47.972;7.830;2023-05-10T08:01:30;13.80;99.90
4207;DHT22;2117;47.972;7.830;2023-05-10T08:03:57;13.80;99.90
4207;DHT22;2117;47.972;7.830;2023-05-10T08:06:23;13.80;99.90
4207;DHT22;2117;47.972;7.830;2023-05-10T08:08:49;13.90;99.90
4207;DHT22;2117;47.972;7.830;2023-05-10T08:11:18;14.00;99.90
4207;DHT22;2117;47.972;7.830;2023-05-10T08:13:45;14.00;99.90
4207;DHT22;2117;47.972;7.830;2023-05-10T08:16:10;14.00;99.90
4207;DHT22;2117;47.972;7.830;2023-05-10T08:18:37;14.10;99.90
4207;DHT22;2117;47.972;7.830;2023-05-10T08:21:03;14.10;99.90
4207;DHT22;2117;47.972;7.830;2023-05-10T08:23:28;14.20;99.90
4207;DHT22;2117;47.972;7.830;2023-05-10T08:25:54;14.20;99.90
4207;DHT22;2117;47.972;7.830;2023-05-10T08:28:19;14.30;99.90
4207;DHT22;2117;47.972;7.830;2023-05-10T08:30:45;14.40;99.90
4207;DHT22;2117;47.972;7.830;2023-05-10T08:33:10;14.40;99.90
4207;DHT22;2117;47.972;7.830;2023-05-10T08:35:36;14.40;99.90
4207;DHT22;2117;47.972;7.830;2023-05-10T08:38:01;14.40;99.90
4207;DHT22;2117;47.972;7.830;2023-05-10T08:40:27;14.40;99.90
4207;DHT22;2117;47.972;7.830;2023-05-10T08:43:01;14.40;99.90
4207;DHT22;2117;47.972;7.830;2023-05-10T08:45:32;14.40;99.90
4207;DHT22;2117;47.972;7.830;2023-05-10T08:47:59;14.40;99.90
4207;DHT22;2117;47.972;7.830;2023-05-10T08:50:25;14.50;99.90
4207;DHT22;2117;47.972;7.830;2023-05-10T08:52:53;14.50;99.90
4207;DHT22;2117;47.972;7.830;2023-05-10T08:55:20;14.50;99.90
4207;DHT22;2117;47.972;7.830;2023-05-10T08:57:46;14.60;99.90
4207;DHT22;2117;47.972;7.830;2023-05-10T09:00:12;14.80;99.90
4207;DHT22;2117;47.972;7.830;2023-05-10T09:02:38;14.80;99.90
4207;DHT22;2117;47.972;7.830;2023-05-10T09:05:04;14.90;99.90
4207;DHT22;2117;47.972;7.830;2023-05-10T09:07:30;14.90;99.90
4207;DHT22;2117;47.972;7.830;2023-05-10T09:09:57;15.00;99.90
4207;DHT22;2117;47.972;7.830;2023-05-10T09:12:23;15.00;99.90
4207;DHT22;2117;47.972;7.830;2023-05-10T09:14:50;15.20;99.90
4207;DHT22;2117;47.972;7.830;2023-05-10T09:17:17;15.30;99.90
4207;DHT22;2117;47.972;7.830;2023-05-10T09:19:45;15.20;99.90
4207;DHT22;2117;47.972;7.830;2023-05-10T09:22:10;15.20;99.90
4207;DHT22;2117;47.972;7.830;2023-05-10T09:24:36;15.10;99.90
4207;DHT22;2117;47.972;7.830;2023-05-10T09:27:07;15.10;99.90
4207;DHT22;2117;47.972;7.830;2023-05-10T09:29:42;15.20;99.90
4207;DHT22;2117;47.972;7.830;2023-05-10T09:32:08;15.20;99.90
4207;DHT22;2117;47.972;7.830;2023-05-10T09:34:33;15.30;99.90
4207;DHT22;2117;47.972;7.830;2023-05-10T09:37:02;15.30;99.90
4207;DHT22;2117;47.972;7.830;2023-05-10T09:39:32;15.40;99.90
4207;DHT22;2117;47.972;7.830;2023-05-10T09:42:01;15.50;99.90
4207;DHT22;2117;47.972;7.830;2023-05-10T09:44:29;15.60;99.90
4207;DHT22;2117;47.972;7.830;2023-05-10T09:46:55;15.50;99.90
4207;DHT22;2117;47.972;7.830;2023-05-10T09:49:21;15.70;99.90
4207;DHT22;2117;47.972;7.830;2023-05-10T09:51:47;15.80;99.90
4207;DHT22;2117;47.972;7.830;2023-05-10T09:54:16;15.90;99.90
4207;DHT22;2117;47.972;7.830;2023-05-10T09:56:42;16.10;99.90
4207;DHT22;2117;47.972;7.830;2023-05-10T09:59:10;16.20;99.90
4207;DHT22;2117;47.972;7.830;2023-05-10T10:01:37;16.20;99.90
4207;DHT22;2117;47.972;7.830;2023-05-10T10:04:04;16.10;99.90
4207;DHT22;2117;47.972;7.830;2023-05-10T10:06:35;16.00;99.90
4207;DHT22;2117;47.972;7.830;2023-05-10T10:09:01;16.10;99.90
4207;DHT22;2117;47.972;7.830;2023-05-10T10:11:27;16.20;99.90
4207;DHT22;2117;47.972;7.830;2023-05-10T10:13:53;16.40;99.90
4207;DHT22;2117;47.972;7.830;2023-05-10T10:16:19;16.50;99.90
4207;DHT22;2117;47.972;7.830;2023-05-10T10:18:45;16.60;99.90
4207;DHT22;2117;47.972;7.830;2023-05-10T10:21:13;16.60;99.90
4207;DHT22;2117;47.972;7.830;2023-05-10T10:23:40;16.60;99.90
4207;DHT22;2117;47.972;7.830;2023-05-10T10:26:06;16.50;99.90
4207;DHT22;2117;47.972;7.830;2023-05-10T10:29:06;16.50;99.90
4207;DHT22;2117;47.972;7.830;2023-05-10T10:34:27;16.50;99.90
4207;DHT22;2117;47.972;7.830;2023-05-10T10:36:54;16.70;99.90
4207;DHT22;2117;47.972;7.830;2023-05-10T10:39:20;16.70;99.90
4207;DHT22;2117;47.972;7.830;2023-05-10T10:41:51;16.90;99.90
4207;DHT22;2117;47.972;7.830;2023-05-10T10:57:54;17.50;99.90
4207;DHT22;2117;47.972;7.830;2023-05-10T11:00:29;17.80;99.90
4207;DHT22;2117;47.972;7.830;2023-05-10T11:05:34;18.40;99.90
4207;DHT22;2117;47.972;7.830;2023-05-10T11:08:07;18.80;99.90
4207;DHT22;2117;47.972;7.830;2023-05-10T11:10:34;18.70;99.90
4207;DHT22;2117;47.972;7.830;2023-05-10T11:13:08;18.30;99.90
4207;DHT22;2117;47.972;7.830;2023-05-10T11:15:35;18.20;99.90
4207;DHT22;2117;47.972;7.830;2023-05-10T11:18:21;18.20;99.90
4207;DHT22;2117;47.972;7.830;2023-05-10T11:20:52;18.30;99.90
4207;DHT22;2117;47.972;7.830;2023-05-10T11:23:21;18.30;99.90
4207;DHT22;2117;47.972;7.830;2023-05-10T11:25:48;18.30;99.90
4207;DHT22;2117;47.972;7.830;2023-05-10T11:28:14;18.30;99.90
4207;DHT22;2117;47.972;7.830;2023-05-10T11:30:43;18.30;99.90
4207;DHT22;2117;47.972;7.830;2023-05-10T11:33:09;18.30;99.90
4207;DHT22;2117;47.972;7.830;2023-05-10T11:35:40;18.10;99.90
4207;DHT22;2117;47.972;7.830;2023-05-10T11:38:15;18.00;99.90
4207;DHT22;2117;47.972;7.830;2023-05-10T11:40:41;17.90;99.90
4207;DHT22;2117;47.972;7.830;2023-05-10T11:43:08;17.90;99.90
4207;DHT22;2117;47.972;7.830;2023-05-10T11:45:35;17.80;99.90
4207;DHT22;2117;47.972;7.830;2023-05-10T11:48:01;18.00;99.90
4207;DHT22;2117;47.972;7.830;2023-05-10T11:50:27;18.50;99.90
4207;DHT22;2117;47.972;7.830;2023-05-10T11:52:53;18.80;99.90
4207;DHT22;2117;47.972;7.830;2023-05-10T11:55:19;18.60;99.90
4207;DHT22;2117;47.972;7.830;2023-05-10T11:57:45;18.30;99.90
4207;DHT22;2117;47.972;7.830;2023-05-10T12:00:14;17.90;99.90
4207;DHT22;2117;47.972;7.830;2023-05-10T12:02:40;17.80;99.90
4207;DHT22;2117;47.972;7.830;2023-05-10T12:05:06;17.90;99.90
4207;DHT22;2117;47.972;7.830;2023-05-10T12:07:32;18.00;99.90
4207;DHT22;2117;47.972;7.830;2023-05-10T12:10:12;18.20;99.90
4207;DHT22;2117;47.972;7.830;2023-05-10T12:12:45;18.20;99.90
4207;DHT22;2117;47.972;7.830;2023-05-10T12:17:44;18.00;99.90
4207;DHT22;2117;47.972;7.830;2023-05-10T12:20:17;17.90;99.90
4207;DHT22;2117;47.972;7.830;2023-05-10T12:22:51;17.70;99.90
4207;DHT22;2117;47.972;7.830;2023-05-10T12:25:18;17.70;99.90
4207;DHT22;2117;47.972;7.830;2023-05-10T12:27:56;17.60;99.90
4207;DHT22;2117;47.972;7.830;2023-05-10T12:30:23;17.50;99.90
4207;DHT22;2117;47.972;7.830;2023-05-10T12:32:49;17.20;99.90
4207;DHT22;2117;47.972;7.830;2023-05-10T12:35:15;17.10;99.90
4207;DHT22;2117;47.972;7.830;2023-05-10T12:37:42;16.90;99.90
4207;DHT22;2117;47.972;7.830;2023-05-10T12:40:10;16.60;99.90
4207;DHT22;2117;47.972;7.830;2023-05-10T12:42:36;16.50;99.90
4207;DHT22;2117;47.972;7.830;2023-05-10T12:45:04;16.30;99.90
4207;DHT22;2117;47.972;7.830;2023-05-10T12:47:31;16.10;99.90
4207;DHT22;2117;47.972;7.830;2023-05-10T12:49:57;16.10;99.90
4207;DHT22;2117;47.972;7.830;2023-05-10T12:52:23;16.20;99.90
4207;DHT22;2117;47.972;7.830;2023-05-10T12:54:48;16.50;99.90
4207;DHT22;2117;47.972;7.830;2023-05-10T12:57:14;17.20;99.90
4207;DHT22;2117;47.972;7.830;2023-05-10T12:59:40;17.70;99.90
4207;DHT22;2117;47.972;7.830;2023-05-10T13:02:06;17.70;99.90
4207;DHT22;2117;47.972;7.830;2023-05-10T13:04:32;17.90;99.90
4207;DHT22;2117;47.972;7.830;2023-05-10T13:06:57;17.90;99.90
4207;DHT22;2117;47.972;7.830;2023-05-10T13:09:24;17.70;99.90
4207;DHT22;2117;47.972;7.830;2023-05-10T13:11:51;13.30;99.90
4207;DHT22;2117;47.972;7.830;2023-05-10T13:14:18;17.20;99.90
4207;DHT22;2117;47.972;7.830;2023-05-10T13:16:46;17.10;99.90
4207;DHT22;2117;47.972;7.830;2023-05-10T13:19:12;16.90;99.90
4207;DHT22;2117;47.972;7.830;2023-05-10T13:21:37;16.80;99.90
4207;DHT22;2117;47.972;7.830;2023-05-10T13:24:03;16.90;99.90
4207;DHT22;2117;47.972;7.830;2023-05-10T13:26:32;16.90;99.90
4207;DHT22;2117;47.972;7.830;2023-05-10T13:28:57;16.90;99.90
4207;DHT22;2117;47.972;7.830;2023-05-10T13:31:23;17.20;99.90
4207;DHT22;2117;47.972;7.830;2023-05-10T13:33:49;17.50;99.90
4207;DHT22;2117;47.972;7.830;2023-05-10T13:36:14;17.80;99.90
4207;DHT22;2117;47.972;7.830;2023-05-10T13:38:40;17.80;99.90
4207;DHT22;2117;47.972;7.830;2023-05-10T13:41:05;17.90;99.90
4207;DHT22;2117;47.972;7.830;2023-05-10T13:43:31;17.90;99.90
4207;DHT22;2117;47.972;7.830;2023-05-10T13:45:56;17.90;99.90
4207;DHT22;2117;47.972;7.830;2023-05-10T13:48:22;17.70;99.90
4207;DHT22;2117;47.972;7.830;2023-05-10T13:50:48;17.70;99.90
4207;DHT22;2117;47.972;7.830;2023-05-10T13:53:13;17.70;99.90
4207;DHT22;2117;47.972;7.830;2023-05-10T13:55:39;17.30;99.90
4207;DHT22;2117;47.972;7.830;2023-05-10T13:58:05;17.30;99.90
4207;DHT22;2117;47.972;7.830;2023-05-10T14:00:30;17.40;99.90
4207;DHT22;2117;47.972;7.830;2023-05-10T14:02:56;17.60;99.90
4207;DHT22;2117;47.972;7.830;2023-05-10T14:05:22;17.80;99.90
4207;DHT22;2117;47.972;7.830;2023-05-10T14:07:49;18.00;99.90
4207;DHT22;2117;47.972;7.830;2023-05-10T14:10:15;18.30;99.90
4207;DHT22;2117;47.972;7.830;2023-05-10T14:12:41;18.80;99.90
4207;DHT22;2117;47.972;7.830;2023-05-10T14:15:07;19.30;99.90
4207;DHT22;2117;47.972;7.830;2023-05-10T14:17:32;19.60;99.90
4207;DHT22;2117;47.972;7.830;2023-05-10T14:19:58;19.80;99.90
4207;DHT22;2117;47.972;7.830;2023-05-10T14:22:24;19.80;99.90
4207;DHT22;2117;47.972;7.830;2023-05-10T14:24:49;19.60;99.90
4207;DHT22;2117;47.972;7.830;2023-05-10T14:27:15;19.20;99.90
4207;DHT22;2117;47.972;7.830;2023-05-10T14:29:41;19.10;99.90
4207;DHT22;2117;47.972;7.830;2023-05-10T14:32:06;18.80;99.90
4207;DHT22;2117;47.972;7.830;2023-05-10T14:34:32;18.50;99.90
4207;DHT22;2117;47.972;7.830;2023-05-10T14:36:58;18.40;99.90
4207;DHT22;2117;47.972;7.830;2023-05-10T14:39:24;18.30;99.90
4207;DHT22;2117;47.972;7.830;2023-05-10T14:41:50;18.20;99.90
4207;DHT22;2117;47.972;7.830;2023-05-10T14:44:17;18.10;99.90
4207;DHT22;2117;47.972;7.830;2023-05-10T14:46:42;18.10;99.90
4207;DHT22;2117;47.972;7.830;2023-05-10T14:49:08;18.10;99.90
4207;DHT22;2117;47.972;7.830;2023-05-10T14:51:33;18.20;99.90
4207;DHT22;2117;47.972;7.830;2023-05-10T14:53:59;18.10;99.90
4207;DHT22;2117;47.972;7.830;2023-05-10T14:56:25;17.90;99.90
4207;DHT22;2117;47.972;7.830;2023-05-10T14:58:51;17.90;99.90
4207;DHT22;2117;47.972;7.830;2023-05-10T15:01:17;17.90;99.90
4207;DHT22;2117;47.972;7.830;2023-05-10T15:03:42;17.70;99.90
4207;DHT22;2117;47.972;7.830;2023-05-10T15:06:08;17.80;99.90
4207;DHT22;2117;47.972;7.830;2023-05-10T15:08:34;18.00;99.90
4207;DHT22;2117;47.972;7.830;2023-05-10T15:10:59;18.10;99.90
4207;DHT22;2117;47.972;7.830;2023-05-10T15:13:25;18.10;99.90
4207;DHT22;2117;47.972;7.830;2023-05-10T15:15:50;18.20;99.90
4207;DHT22;2117;47.972;7.830;2023-05-10T15:18:16;18.00;99.90
4207;DHT22;2117;47.972;7.830;2023-05-10T15:20:42;18.00;99.90
4207;DHT22;2117;47.972;7.830;2023-05-10T15:23:07;18.00;99.90
4207;DHT22;2117;47.972;7.830;2023-05-10T15:25:33;17.90;99.90
4207;DHT22;2117;47.972;7.830;2023-05-10T15:28:03;17.90;99.90
4207;DHT22;2117;47.972;7.830;2023-05-10T15:30:29;18.00;99.90
4207;DHT22;2117;47.972;7.830;2023-05-10T15:32:55;18.20;99.90
4207;DHT22;2117;47.972;7.830;2023-05-10T15:35:20;18.30;99.90
4207;DHT22;2117;47.972;7.830;2023-05-10T15:37:47;18.40;99.90
4207;DHT22;2117;47.972;7.830;2023-05-10T15:40:13;18.50;99.90
4207;DHT22;2117;47.972;7.830;2023-05-10T15:42:39;18.60;99.90
4207;DHT22;2117;47.972;7.830;2023-05-10T15:45:05;19.00;99.90
4207;DHT22;2117;47.972;7.830;2023-05-10T15:47:31;19.10;99.90
4207;DHT22;2117;47.972;7.830;2023-05-10T15:49:58;19.00;99.90
4207;DHT22;2117;47.972;7.830;2023-05-10T15:52:23;19.00;99.90
4207;DHT22;2117;47.972;7.830;2023-05-10T15:54:49;18.70;99.90
4207;DHT22;2117;47.972;7.830;2023-05-10T15:57:15;18.50;99.90
4207;DHT22;2117;47.972;7.830;2023-05-10T15:59:41;18.50;99.90
4207;DHT22;2117;47.972;7.830;2023-05-10T16:02:08;18.30;99.90
4207;DHT22;2117;47.972;7.830;2023-05-10T16:04:35;18.30;99.90
4207;DHT22;2117;47.972;7.830;2023-05-10T16:07:01;18.30;99.90
4207;DHT22;2117;47.972;7.830;2023-05-10T16:09:26;18.20;99.90
4207;DHT22;2117;47.972;7.830;2023-05-10T16:11:52;18.20;99.90
4207;DHT22;2117;47.972;7.830;2023-05-10T16:14:18;17.90;99.90
4207;DHT22;2117;47.972;7.830;2023-05-10T16:16:45;17.60;99.90
4207;DHT22;2117;47.972;7.830;2023-05-10T16:19:11;17.40;99.90
4207;DHT22;2117;47.972;7.830;2023-05-10T16:21:37;17.10;99.90
4207;DHT22;2117;47.972;7.830;2023-05-10T16:24:03;17.00;99.90
4207;DHT22;2117;47.972;7.830;2023-05-10T16:26:29;16.90;99.90
4207;DHT22;2117;47.972;7.830;2023-05-10T16:28:55;17.00;99.90
4207;DHT22;2117;47.972;7.830;2023-05-10T16:31:20;17.00;99.90
4207;DHT22;2117;47.972;7.830;2023-05-10T16:33:46;17.00;99.90
4207;DHT22;2117;47.972;7.830;2023-05-10T16:36:12;17.00;99.90
4207;DHT22;2117;47.972;7.830;2023-05-10T16:38:37;17.00;99.90
4207;DHT22;2117;47.972;7.830;2023-05-10T16:41:03;16.90;99.90